Charter Quote
Worldwide +1-877-727-2538 Call
Select Language Lang
SAFETY RELIABILITY EXPERIENCE

Private Jet Charter Services - Wusu (ZBYN)

Paramount Business Jets offers private jet charter flights and luxury airliner charters to and from Wusu.

AIRPORT INFORMATION
ICAOZBYN
IATATYN
LOCATIONTaiyuan, China
FACILITY TYPEAIRPORT

At Paramount Business Jets you can hire chartered private jets to and from Wusu with as little as 4 hours of notice. All flights booked via Paramount Business Jets are operated by certified direct air carriers that meet and exceed the FAA part 135 and 121 protocol or a foreign equivalent safety authority. Furthermore, Paramount Business Jets subscribes to ARGUS for their third party safety checks of operators, aircraft, and crews prior each and every flight to and from Wusu and worldwide.

  • Quote a trip using Wusu or call us 24/7 - 365 days a year at +1-877-727-2538.
Questions? Call +1-877-727-2538

METAR Weather Data at Wusu, ZBYN, TYN

STATIONZBYN
OBSERVEDTue Jul 16, 04:00 UTC
NOWTue Jul 16, 04:06 UTC
AGE6 min ago
WINDNW at 7 mph
VISIBILITY10 miles
METARZBYN 160400Z 32003MPS 290V350 6000 NSC 28/17 Q1010 NOSIG

Call us on +1-877-727-2538 (24 Hours) to Hire a Private Jet or Get a Quick Quote.

Find Airports Near any Location

Processing
...